メインページ
METAR-TAF:

METAR-TAF

空港 :

Olean, ニューヨーク, アメリカ合衆国

緯度: 42-14-28N, 経度: 078-22-17W, 海抜: 651m

現時点の気象観測

当レポートは28分前の04:55(UTC)に作成
北西の風 3kt
気温 1°C
湿度 100%
気圧 1015 hPa
視程: 16.1km
高度300ftの曇り

METAR: KOLE 040455Z AUTO 32003KT 10SM OVC003 01/01 A2997 RMK AO2

時間: 01:23 (05:23 UTC)


TAF: 見つかりません

4,000以上の空港の気象観測と天気予報(METAR報とTAF報)

利用可能な観測所は地図上に黄色い丸と赤い丸で示す。

丸の上にカーソルを重ねると観測所名を参照できる。

次にクリックすると気象観測と天気予報を参照できる。

マップの切り替え:黒色「×」印の緑ボタンをクリックして拡大、「-」印の緑ボタンをクリックして縮小、緑色の三角印をクリックして隣りの地図に切り替え


METAR-TAF: